createdAt,value
2022-09-21T00:01:06.435Z,99.90
2022-09-21T00:03:34.556Z,99.90
2022-09-21T00:06:06.649Z,99.90
2022-09-21T00:08:34.992Z,99.90
2022-09-21T00:11:05.483Z,99.90
2022-09-21T00:13:34.642Z,99.90
2022-09-21T00:16:05.828Z,99.90
2022-09-21T00:18:34.483Z,99.90
2022-09-21T00:21:02.639Z,99.90
2022-09-21T00:23:30.606Z,99.90
2022-09-21T00:26:08.668Z,99.90
2022-09-21T00:28:36.969Z,99.90
2022-09-21T00:31:06.822Z,99.90
2022-09-21T00:33:35.612Z,99.90
2022-09-21T00:36:04.752Z,99.90
2022-09-21T00:38:32.770Z,99.90
2022-09-21T00:41:00.708Z,99.90
2022-09-21T00:43:30.319Z,99.90
2022-09-21T00:46:03.990Z,99.90
2022-09-21T00:48:32.331Z,99.90
2022-09-21T00:51:05.538Z,99.90
2022-09-21T00:53:33.557Z,99.90
2022-09-21T00:56:05.620Z,99.90
2022-09-21T00:58:40.506Z,99.90
2022-09-21T01:01:08.756Z,99.90
2022-09-21T01:03:36.720Z,99.90
2022-09-21T01:06:05.103Z,99.90
2022-09-21T01:08:34.387Z,99.90
2022-09-21T01:11:22.680Z,99.90
2022-09-21T01:14:07.778Z,99.90
2022-09-21T01:16:41.603Z,99.90
2022-09-21T01:19:26.237Z,99.90
2022-09-21T01:22:04.235Z,99.90
2022-09-21T01:24:55.753Z,99.90
2022-09-21T01:27:47.584Z,99.90
2022-09-21T01:30:19.227Z,99.90
2022-09-21T01:32:52.853Z,99.90
2022-09-21T01:35:24.209Z,99.90
2022-09-21T01:37:57.613Z,99.90
2022-09-21T01:40:35.397Z,99.90
2022-09-21T01:43:06.661Z,99.90
2022-09-21T01:45:40.250Z,99.90
2022-09-21T01:48:09.196Z,99.90
2022-09-21T01:50:42.696Z,99.90
2022-09-21T01:53:15.072Z,99.90
2022-09-21T01:55:46.769Z,99.90
2022-09-21T01:58:20.185Z,99.90
2022-09-21T02:00:53.386Z,99.90
2022-09-21T02:03:28.348Z,99.90
2022-09-21T02:05:58.067Z,99.90
2022-09-21T02:08:27.766Z,99.90
2022-09-21T02:10:56.797Z,99.90
2022-09-21T02:13:28.077Z,99.90
2022-09-21T02:16:22.008Z,99.90
2022-09-21T02:18:59.792Z,99.90
2022-09-21T02:21:33.244Z,99.90
2022-09-21T02:24:09.566Z,99.90
2022-09-21T02:26:46.013Z,99.90
2022-09-21T02:29:21.204Z,99.90
2022-09-21T02:31:55.672Z,99.90
2022-09-21T02:34:33.369Z,99.90
2022-09-21T02:37:10.281Z,99.90
2022-09-21T02:39:47.768Z,99.90
2022-09-21T02:42:20.436Z,99.90
2022-09-21T02:44:52.266Z,99.90
2022-09-21T02:47:27.315Z,99.90
2022-09-21T02:50:00.985Z,99.90
2022-09-21T02:52:30.965Z,99.90
2022-09-21T02:54:59.620Z,99.90
2022-09-21T02:57:28.185Z,99.90
2022-09-21T02:59:56.156Z,99.90
2022-09-21T03:02:25.572Z,99.90
2022-09-21T03:04:54.074Z,99.90
2022-09-21T03:07:22.009Z,99.90
2022-09-21T03:09:50.124Z,99.90
2022-09-21T03:12:18.108Z,99.90
2022-09-21T03:14:45.989Z,99.90
2022-09-21T03:17:14.119Z,99.90
2022-09-21T03:19:43.572Z,99.90
2022-09-21T03:22:11.571Z,99.90
2022-09-21T03:24:48.454Z,99.90
2022-09-21T03:27:18.219Z,99.90
2022-09-21T03:29:46.160Z,99.90
2022-09-21T03:32:14.803Z,99.90
2022-09-21T03:34:44.223Z,99.90
2022-09-21T03:37:12.480Z,99.90
2022-09-21T03:39:40.403Z,99.90
2022-09-21T03:42:09.924Z,99.90
2022-09-21T03:44:38.278Z,99.90
2022-09-21T03:47:06.579Z,99.90
2022-09-21T03:49:34.942Z,99.90
2022-09-21T03:52:04.626Z,99.90
2022-09-21T03:54:32.652Z,99.90
2022-09-21T03:57:00.598Z,99.90
2022-09-21T03:59:28.610Z,99.90
2022-09-21T04:01:56.621Z,99.90
2022-09-21T04:04:24.587Z,99.90
2022-09-21T04:06:52.432Z,99.90
2022-09-21T04:09:21.769Z,99.90
2022-09-21T04:11:49.701Z,99.90
2022-09-21T04:14:17.602Z,99.90
2022-09-21T04:16:45.498Z,99.90
2022-09-21T04:19:13.657Z,99.90
2022-09-21T04:21:41.632Z,99.90
2022-09-21T04:24:09.603Z,99.90
2022-09-21T04:26:40.715Z,99.90
2022-09-21T04:29:08.618Z,99.90
2022-09-21T04:31:36.882Z,99.90
2022-09-21T04:34:04.876Z,99.90
2022-09-21T04:36:36.512Z,99.90
2022-09-21T04:39:05.340Z,99.90
2022-09-21T04:41:33.432Z,99.90
2022-09-21T04:44:03.214Z,99.90
2022-09-21T04:46:31.454Z,99.90
2022-09-21T04:48:59.393Z,99.90
2022-09-21T04:51:27.379Z,99.90
2022-09-21T04:53:55.397Z,99.90
2022-09-21T04:56:24.621Z,99.90
2022-09-21T04:58:52.564Z,99.90
2022-09-21T05:01:22.024Z,99.90
2022-09-21T05:03:50.051Z,99.90
2022-09-21T05:06:17.998Z,99.90
2022-09-21T05:08:59.788Z,99.90
2022-09-21T05:11:28.052Z,99.90
2022-09-21T05:13:56.067Z,99.90
2022-09-21T05:16:25.522Z,99.90
2022-09-21T05:18:55.809Z,99.90
2022-09-21T05:21:23.759Z,99.90
2022-09-21T05:23:51.777Z,99.90
2022-09-21T05:26:19.974Z,99.90
2022-09-21T05:28:48.405Z,99.90
2022-09-21T05:31:32.027Z,99.90
2022-09-21T05:34:07.509Z,99.90
2022-09-21T05:36:45.542Z,99.90
2022-09-21T05:39:14.008Z,99.90
2022-09-21T05:41:42.415Z,99.90
2022-09-21T05:44:13.600Z,99.90
2022-09-21T05:46:52.709Z,99.90
2022-09-21T05:49:30.046Z,99.90
2022-09-21T05:52:08.022Z,99.90
2022-09-21T05:54:48.727Z,99.90
2022-09-21T05:57:27.357Z,99.90
2022-09-21T06:00:20.722Z,99.90
2022-09-21T06:03:08.716Z,99.90
2022-09-21T06:05:37.237Z,99.90
2022-09-21T06:08:05.219Z,99.90
2022-09-21T06:10:35.395Z,99.90
2022-09-21T06:13:03.334Z,99.90
2022-09-21T06:15:31.570Z,99.90
2022-09-21T06:18:00.836Z,99.90
2022-09-21T06:20:28.813Z,99.90
2022-09-21T06:23:01.949Z,99.90
2022-09-21T06:25:29.906Z,99.90
2022-09-21T06:28:02.555Z,99.90
2022-09-21T06:30:30.394Z,99.90
2022-09-21T06:33:01.506Z,99.90
2022-09-21T06:35:29.831Z,99.90
2022-09-21T06:38:01.204Z,99.90
2022-09-21T06:40:30.094Z,99.90
2022-09-21T06:42:59.074Z,99.90
2022-09-21T06:45:27.454Z,99.90
2022-09-21T06:47:55.380Z,99.90
2022-09-21T06:50:25.085Z,99.90
2022-09-21T06:52:53.077Z,99.90
2022-09-21T06:55:21.069Z,99.90
2022-09-21T06:57:49.362Z,99.90
2022-09-21T07:00:17.630Z,99.90
2022-09-21T07:02:45.955Z,99.90
2022-09-21T07:05:14.158Z,99.90
2022-09-21T07:07:43.406Z,99.90
2022-09-21T07:10:15.684Z,99.90
2022-09-21T07:12:45.300Z,99.90
2022-09-21T07:15:13.426Z,99.90
2022-09-21T07:17:43.012Z,99.90
2022-09-21T07:20:11.709Z,99.90
2022-09-21T07:22:39.728Z,99.90
2022-09-21T07:25:10.240Z,99.90
2022-09-21T07:27:38.173Z,99.90
2022-09-21T07:30:07.402Z,99.90
2022-09-21T07:32:36.114Z,99.90
2022-09-21T07:35:05.438Z,99.90
2022-09-21T07:37:33.568Z,99.90
2022-09-21T07:40:04.223Z,99.90
2022-09-21T07:42:33.747Z,99.90
2022-09-21T07:45:05.125Z,99.90
2022-09-21T07:47:33.247Z,99.90
2022-09-21T07:50:01.279Z,99.90
2022-09-21T07:52:29.228Z,99.90
2022-09-21T07:54:57.160Z,99.90
2022-09-21T07:57:42.528Z,99.90
2022-09-21T08:00:14.922Z,99.90
2022-09-21T08:02:47.328Z,99.90
2022-09-21T08:05:16.073Z,99.90
2022-09-21T08:07:44.317Z,99.90
2022-09-21T08:10:13.116Z,99.90
2022-09-21T08:12:41.152Z,99.90
2022-09-21T08:15:30.506Z,99.90
2022-09-21T08:18:00.796Z,99.90
2022-09-21T08:20:29.116Z,99.90
2022-09-21T08:22:57.258Z,99.90
2022-09-21T08:25:25.201Z,99.90
2022-09-21T08:27:53.162Z,99.90
2022-09-21T08:30:22.607Z,99.90
2022-09-21T08:32:51.952Z,99.90
2022-09-21T08:35:20.052Z,99.90
2022-09-21T08:37:47.961Z,99.90
2022-09-21T08:40:16.915Z,99.90
2022-09-21T08:42:54.006Z,99.90
2022-09-21T08:45:25.456Z,99.90
2022-09-21T08:47:57.250Z,99.90
2022-09-21T08:50:33.865Z,99.90
2022-09-21T08:53:09.045Z,99.90
2022-09-21T08:55:37.017Z,99.90
2022-09-21T08:58:05.367Z,99.90
2022-09-21T09:00:38.977Z,99.90
2022-09-21T09:03:31.213Z,99.90
2022-09-21T09:06:03.375Z,99.90
2022-09-21T09:08:52.319Z,99.90
2022-09-21T09:11:32.321Z,99.90
2022-09-21T09:14:27.056Z,99.90
2022-09-21T09:17:09.138Z,99.90
2022-09-21T09:19:45.994Z,99.90
2022-09-21T09:22:18.049Z,99.90
2022-09-21T09:24:50.350Z,99.90
2022-09-21T09:27:22.903Z,99.90
2022-09-21T09:30:03.276Z,99.90
2022-09-21T09:32:42.131Z,99.90
2022-09-21T09:35:23.366Z,99.90
2022-09-21T09:37:54.171Z,99.90
2022-09-21T09:40:37.191Z,99.90
2022-09-21T09:43:07.228Z,99.90
2022-09-21T09:45:56.094Z,99.90
2022-09-21T09:48:36.868Z,99.90
2022-09-21T09:51:04.914Z,99.90
2022-09-21T09:53:33.951Z,99.90
2022-09-21T09:56:02.453Z,99.90
2022-09-21T09:58:42.567Z,99.90
2022-09-21T10:01:10.598Z,99.90
2022-09-21T10:03:40.926Z,99.90
2022-09-21T10:06:31.290Z,99.90
2022-09-21T10:08:59.280Z,99.90
2022-09-21T10:11:37.944Z,99.90
2022-09-21T10:14:11.744Z,99.90
2022-09-21T10:16:42.794Z,99.90
2022-09-21T10:19:21.090Z,99.90
2022-09-21T10:21:52.313Z,99.90
2022-09-21T10:24:48.694Z,99.90
2022-09-21T10:27:20.822Z,99.40
2022-09-21T10:29:50.472Z,99.00
2022-09-21T10:32:24.249Z,97.80
2022-09-21T10:35:15.110Z,97.60
2022-09-21T10:37:45.511Z,98.40
2022-09-21T10:40:30.762Z,97.60
2022-09-21T10:43:01.336Z,97.00
2022-09-21T10:45:31.240Z,97.00
2022-09-21T10:48:07.899Z,96.80
2022-09-21T10:50:39.256Z,96.30
2022-09-21T10:53:20.217Z,96.20
2022-09-21T10:56:15.132Z,97.20
2022-09-21T10:59:11.378Z,97.10
2022-09-21T11:01:44.704Z,96.90
2022-09-21T11:04:18.721Z,96.80
2022-09-21T11:06:50.662Z,97.30
2022-09-21T11:09:23.358Z,97.70
2022-09-21T11:11:54.765Z,96.10
2022-09-21T11:14:35.909Z,95.00
2022-09-21T11:17:13.335Z,95.00
2022-09-21T11:19:49.330Z,95.30
2022-09-21T11:22:23.826Z,95.60
2022-09-21T11:25:00.494Z,95.30
2022-09-21T11:27:36.211Z,94.40
2022-09-21T11:30:08.172Z,94.30
2022-09-21T11:33:05.111Z,94.60
2022-09-21T11:35:47.380Z,95.70
2022-09-21T11:38:32.280Z,94.50
2022-09-21T11:41:14.816Z,94.60
2022-09-21T11:44:01.328Z,94.50
2022-09-21T11:46:38.192Z,94.20
2022-09-21T11:49:32.233Z,94.80
2022-09-21T11:52:13.283Z,94.10
2022-09-21T11:55:01.746Z,93.60
2022-09-21T11:57:36.651Z,94.10
2022-09-21T12:00:16.030Z,94.50
2022-09-21T12:03:29.367Z,94.10
2022-09-21T12:06:11.003Z,93.20
2022-09-21T12:08:51.645Z,93.70
2022-09-21T12:11:30.697Z,92.20
2022-09-21T12:14:07.832Z,92.70
2022-09-21T12:16:41.768Z,91.80
2022-09-21T12:19:19.382Z,93.10
2022-09-21T12:21:52.489Z,92.50
2022-09-21T12:24:23.203Z,90.20
2022-09-21T12:26:55.547Z,91.20
2022-09-21T12:29:30.265Z,90.30
2022-09-21T12:32:07.051Z,90.00
2022-09-21T12:34:42.511Z,91.20
2022-09-21T12:37:18.486Z,90.90
2022-09-21T12:39:56.627Z,91.80
2022-09-21T12:42:39.746Z,91.30
2022-09-21T12:45:17.215Z,89.60
2022-09-21T12:47:52.349Z,88.60
2022-09-21T12:50:27.134Z,88.20
2022-09-21T12:52:58.448Z,91.10
2022-09-21T12:55:41.540Z,89.10
2022-09-21T12:58:16.309Z,90.00
2022-09-21T13:00:53.841Z,88.70
2022-09-21T13:03:29.690Z,87.70
2022-09-21T13:06:20.057Z,89.40
2022-09-21T13:08:50.895Z,88.50
2022-09-21T13:11:21.676Z,89.50
2022-09-21T13:13:53.280Z,90.60
2022-09-21T13:16:29.101Z,90.00
2022-09-21T13:18:59.752Z,88.00
2022-09-21T13:21:30.393Z,90.00
2022-09-21T13:24:01.727Z,87.40
2022-09-21T13:26:39.440Z,87.60
2022-09-21T13:29:38.599Z,87.90
2022-09-21T13:32:23.462Z,89.00
2022-09-21T13:34:51.605Z,87.30
2022-09-21T13:37:31.016Z,84.70
2022-09-21T13:40:39.209Z,87.70
2022-09-21T13:43:22.165Z,87.90
2022-09-21T13:45:56.356Z,87.30
2022-09-21T13:48:29.573Z,85.50
2022-09-21T13:50:59.938Z,85.10
2022-09-21T13:53:33.798Z,87.40
2022-09-21T13:56:08.698Z,85.80
2022-09-21T13:58:45.663Z,86.50
2022-09-21T14:01:45.184Z,87.20
2022-09-21T14:04:25.327Z,87.50
2022-09-21T14:06:55.416Z,85.80
2022-09-21T14:09:28.384Z,84.60
2022-09-21T14:12:00.125Z,84.90
2022-09-21T14:14:33.372Z,86.40
2022-09-21T14:17:02.691Z,86.60
2022-09-21T14:20:01.075Z,87.50
2022-09-21T14:22:38.485Z,88.70
2022-09-21T14:25:32.117Z,89.20
2022-09-21T14:28:04.268Z,89.90
2022-09-21T14:30:36.717Z,88.70
2022-09-21T14:33:17.354Z,88.80
2022-09-21T14:35:47.406Z,86.20
2022-09-21T14:38:21.463Z,86.40
2022-09-21T14:40:51.367Z,87.00
2022-09-21T14:43:25.174Z,85.90
2022-09-21T14:46:25.917Z,86.10
2022-09-21T14:49:07.349Z,87.90
2022-09-21T14:51:43.877Z,87.30
2022-09-21T14:54:31.358Z,84.30
2022-09-21T14:57:13.413Z,86.60
2022-09-21T14:59:58.810Z,85.40
2022-09-21T15:02:31.394Z,83.10
2022-09-21T15:05:19.431Z,85.10
2022-09-21T15:08:10.651Z,86.40
2022-09-21T15:10:59.354Z,86.60
2022-09-21T15:13:48.659Z,86.60
2022-09-21T15:16:38.264Z,84.60
2022-09-21T15:19:23.913Z,85.60
2022-09-21T15:21:53.512Z,86.60
2022-09-21T15:24:25.981Z,86.30
2022-09-21T15:27:03.969Z,87.20
2022-09-21T15:29:33.926Z,86.90
2022-09-21T15:32:02.527Z,86.20
2022-09-21T15:34:32.609Z,84.90
2022-09-21T15:37:16.453Z,85.80
2022-09-21T15:39:44.960Z,85.60
2022-09-21T15:42:19.846Z,86.40
2022-09-21T15:44:51.502Z,86.00
2022-09-21T15:47:23.184Z,86.30
2022-09-21T15:49:56.244Z,86.80
2022-09-21T15:52:32.403Z,86.90
2022-09-21T15:55:02.848Z,86.50
2022-09-21T15:57:39.017Z,86.90
2022-09-21T16:00:20.913Z,86.80
2022-09-21T16:03:07.531Z,88.10
2022-09-21T16:05:46.887Z,88.00
2022-09-21T16:08:34.489Z,86.90
2022-09-21T16:11:15.309Z,87.30
2022-09-21T16:14:02.460Z,87.80
2022-09-21T16:16:30.742Z,89.10
2022-09-21T16:19:00.673Z,87.80
2022-09-21T16:21:32.748Z,88.50
2022-09-21T16:24:12.546Z,89.00
2022-09-21T16:26:42.489Z,89.90
2022-09-21T16:29:20.179Z,90.10
2022-09-21T16:31:50.293Z,90.20
2022-09-21T16:34:26.553Z,90.40
2022-09-21T16:36:55.910Z,90.40
2022-09-21T16:39:24.146Z,90.40
2022-09-21T16:41:56.282Z,90.40
2022-09-21T16:44:26.724Z,90.60
2022-09-21T16:47:00.531Z,90.50
2022-09-21T16:49:32.761Z,90.90
2022-09-21T16:52:07.459Z,91.00
2022-09-21T16:54:37.521Z,91.10
2022-09-21T16:57:07.466Z,91.20
2022-09-21T16:59:36.588Z,91.50
2022-09-21T17:02:05.995Z,91.80
2022-09-21T17:04:36.245Z,92.30
2022-09-21T17:07:06.547Z,92.00
2022-09-21T17:09:37.871Z,92.20
2022-09-21T17:12:08.190Z,92.30
2022-09-21T17:14:41.810Z,92.40
2022-09-21T17:17:17.610Z,92.60
2022-09-21T17:19:46.601Z,92.80
2022-09-21T17:22:18.368Z,93.20
2022-09-21T17:24:50.915Z,93.30
2022-09-21T17:27:21.260Z,93.40
2022-09-21T17:29:50.613Z,93.80
2022-09-21T17:32:20.854Z,94.00
2022-09-21T17:34:53.316Z,94.30
2022-09-21T17:37:25.171Z,94.50
2022-09-21T17:39:53.898Z,94.60
2022-09-21T17:42:25.280Z,94.80
2022-09-21T17:45:12.737Z,95.10
2022-09-21T17:47:42.020Z,95.30
2022-09-21T17:50:20.864Z,95.40
2022-09-21T17:53:08.581Z,95.40
2022-09-21T17:55:37.155Z,95.70
2022-09-21T17:58:25.611Z,96.00
2022-09-21T18:01:01.169Z,96.50
2022-09-21T18:03:31.555Z,96.40
2022-09-21T18:06:00.915Z,96.70
2022-09-21T18:08:33.443Z,96.80
2022-09-21T18:11:13.931Z,97.10
2022-09-21T18:13:55.559Z,97.20
2022-09-21T18:16:28.614Z,97.40
2022-09-21T18:19:17.251Z,97.60
2022-09-21T18:21:50.670Z,97.80
2022-09-21T18:24:31.137Z,97.90
2022-09-21T18:27:00.209Z,98.00
2022-09-21T18:29:40.663Z,98.30
2022-09-21T18:32:25.960Z,98.50
2022-09-21T18:35:20.429Z,98.70
2022-09-21T18:37:59.437Z,98.90
2022-09-21T18:40:36.822Z,99.10
2022-09-21T18:43:13.931Z,99.30
2022-09-21T18:45:45.750Z,99.50
2022-09-21T18:48:24.152Z,99.90
2022-09-21T18:51:01.513Z,99.90
2022-09-21T18:53:38.560Z,99.90
2022-09-21T18:56:11.846Z,99.90
2022-09-21T18:58:41.607Z,99.90
2022-09-21T19:01:13.199Z,99.90
2022-09-21T19:03:43.370Z,99.90
2022-09-21T19:06:23.169Z,99.90
2022-09-21T19:08:59.847Z,99.90
2022-09-21T19:11:38.345Z,99.90
2022-09-21T19:14:15.684Z,99.90
2022-09-21T19:16:54.199Z,99.90
2022-09-21T19:19:34.025Z,99.90
2022-09-21T19:22:15.830Z,99.90
2022-09-21T19:24:56.178Z,99.90
2022-09-21T19:27:38.252Z,99.90
2022-09-21T19:30:09.668Z,99.90
2022-09-21T19:32:43.873Z,99.90
2022-09-21T19:35:21.345Z,99.90
2022-09-21T19:40:48.320Z,99.90
2022-09-21T19:43:24.457Z,99.90
2022-09-21T19:46:05.597Z,99.90
2022-09-21T19:48:42.430Z,99.90
2022-09-21T19:51:17.298Z,99.90
2022-09-21T19:54:03.462Z,99.90
2022-09-21T19:56:54.737Z,99.90
2022-09-21T19:59:42.941Z,99.90
2022-09-21T20:02:13.880Z,99.90
2022-09-21T20:04:50.657Z,99.90
2022-09-21T20:07:25.626Z,99.90
2022-09-21T20:10:08.339Z,99.90
2022-09-21T20:12:42.210Z,99.90
2022-09-21T20:15:16.862Z,99.90
2022-09-21T20:17:50.029Z,99.90
2022-09-21T20:20:22.324Z,99.90
2022-09-21T20:22:50.920Z,99.90
2022-09-21T20:25:24.309Z,99.90
2022-09-21T20:27:55.791Z,99.90
2022-09-21T20:30:27.256Z,99.90
2022-09-21T20:32:58.884Z,99.90
2022-09-21T20:35:28.664Z,99.90
2022-09-21T20:38:02.031Z,99.90
2022-09-21T20:40:31.113Z,99.90
2022-09-21T20:43:00.885Z,99.90
2022-09-21T20:45:32.172Z,99.90
2022-09-21T20:48:13.168Z,99.90
2022-09-21T20:50:42.159Z,99.90
2022-09-21T20:53:10.622Z,99.90
2022-09-21T20:55:38.621Z,99.90
2022-09-21T20:58:06.696Z,99.90
2022-09-21T21:00:36.703Z,99.90
2022-09-21T21:03:05.289Z,99.90
2022-09-21T21:05:33.345Z,99.90
2022-09-21T21:08:01.734Z,99.90
2022-09-21T21:10:30.032Z,99.90
2022-09-21T21:12:59.156Z,99.90
2022-09-21T21:15:27.367Z,99.90
2022-09-21T21:17:56.884Z,99.90
2022-09-21T21:20:25.337Z,99.90
2022-09-21T21:22:53.692Z,99.90
2022-09-21T21:25:22.691Z,99.90
2022-09-21T21:27:50.804Z,99.90
2022-09-21T21:30:18.891Z,99.90
2022-09-21T21:32:46.733Z,99.90
2022-09-21T21:35:16.315Z,99.90
2022-09-21T21:37:44.386Z,99.90
2022-09-21T21:40:12.425Z,99.90
2022-09-21T21:42:40.296Z,99.90
2022-09-21T21:45:10.001Z,99.90
2022-09-21T21:47:40.653Z,99.90
2022-09-21T21:50:09.879Z,99.90
2022-09-21T21:52:39.323Z,99.90
2022-09-21T21:55:07.831Z,99.90
2022-09-21T21:57:35.846Z,99.90
2022-09-21T22:00:04.157Z,99.90
2022-09-21T22:02:32.554Z,99.90
2022-09-21T22:05:00.674Z,99.90
2022-09-21T22:07:28.656Z,99.90
2022-09-21T22:09:57.946Z,99.90
2022-09-21T22:12:26.414Z,99.90
2022-09-21T22:14:54.384Z,99.90
2022-09-21T22:17:22.974Z,99.90
2022-09-21T22:19:51.383Z,99.90
2022-09-21T22:22:19.346Z,99.90
2022-09-21T22:24:47.991Z,99.90
2022-09-21T22:27:17.767Z,99.90
2022-09-21T22:29:45.611Z,99.90
2022-09-21T22:32:13.540Z,99.90
2022-09-21T22:34:41.422Z,99.90
2022-09-21T22:37:09.269Z,99.90
2022-09-21T22:39:37.257Z,99.90
2022-09-21T22:42:05.413Z,99.90
2022-09-21T22:44:34.734Z,99.90
2022-09-21T22:47:02.581Z,99.90
2022-09-21T22:49:30.413Z,99.90
2022-09-21T22:51:58.363Z,99.90
2022-09-21T22:54:27.617Z,99.90
2022-09-21T22:56:55.503Z,99.90
2022-09-21T22:59:23.353Z,99.90
2022-09-21T23:01:52.817Z,99.90
2022-09-21T23:04:21.093Z,99.90
2022-09-21T23:06:50.162Z,99.90
2022-09-21T23:09:20.793Z,99.90
2022-09-21T23:11:53.357Z,99.90
2022-09-21T23:14:21.774Z,99.90
2022-09-21T23:16:50.174Z,99.90
2022-09-21T23:19:19.550Z,99.90
2022-09-21T23:21:50.573Z,99.90
2022-09-21T23:24:19.247Z,99.90
2022-09-21T23:26:47.963Z,99.90
2022-09-21T23:29:17.153Z,99.90
2022-09-21T23:31:46.369Z,99.90
2022-09-21T23:34:15.290Z,99.90
2022-09-21T23:36:45.767Z,99.90
2022-09-21T23:39:15.141Z,99.90
2022-09-21T23:41:43.507Z,99.90
2022-09-21T23:44:11.681Z,99.90
2022-09-21T23:46:40.842Z,99.90
2022-09-21T23:49:09.084Z,99.90
2022-09-21T23:51:37.381Z,99.90
2022-09-21T23:54:07.075Z,99.90
2022-09-21T23:56:35.100Z,99.90
2022-09-21T23:59:03.069Z,99.90
